F/V Berriz Patxiku — ECES — position and weather

sailwx.info

Track history (hours):
 
Tides and Currents Weather Stations Pressure Air Temp Water Temp Dewpoint Dewpoint Depression Visibility Wind Speed Wind Dir Waves Ship Positions

F/V Berriz Patxiku

Last reported at 2016-Sep-22 04:33 UTC. Time now 2016-Sep-25 00:20 UTC.
Position N 44°38' W 001°27'.

Length 30 m.

Type: Fishing. MMSI: 224106260.

Date/timePositionNaut miles runAvg speedWind from/ knotsBaromVisibWave heightAir tempDewpointWater temp
2016-Sep-22 04:33N 44°38' W 001°27'0 0.3
2016-Sep-22 03:33N 44°38' W 001°27'6 1.9
2016-Sep-22 00:33N 44°32' W 001°25'9 9.1
2016-Sep-21 23:33N 44°23' W 001°26'11 9.8
2016-Sep-21 22:28N 44°13' W 001°30'3110.3
2016-Sep-21 19:27N 43°46' W 001°51'46 3.3
2016-Sep-21 05:33N 44°28' W 001°26'7 3.7
2016-Sep-21 03:33N 44°35' W 001°26'0 0.2
2016-Sep-21 02:33N 44°35' W 001°26'10 1.2
2016-Sep-20 17:33N 44°45' W 001°29'1 0.2
2016-Sep-20 14:33N 44°45' W 001°30'0 0.4
2016-Sep-20 13:33N 44°45' W 001°30'12 3.9
2016-Sep-20 10:33N 44°33' W 001°29'7 0.9
2016-Sep-20 02:32N 44°26' W 001°26'6 2.1
2016-Sep-19 23:33N 44°32' W 001°27'  
Track history (hours):
 
Tides and Currents Weather Stations Pressure Air Temp Water Temp Dewpoint Dewpoint Depression Visibility Wind Speed Wind Dir Waves Ship Positions

F/V Berriz Patxiku

Last reported at 2016-Sep-22 04:33 UTC. Time now 2016-Sep-25 00:20 UTC.
Position N 44°38' W 001°27'.

Length 30 m.

Type: Fishing. MMSI: 224106260.

Date/timePositionNaut miles runAvg speedWind from/ knotsBaromVisibWave heightAir tempDewpointWater temp
2016-Sep-22 04:33N 44°38' W 001°27'0 0.3
2016-Sep-22 03:33N 44°38' W 001°27'6 1.9
2016-Sep-22 00:33N 44°32' W 001°25'9 9.1
2016-Sep-21 23:33N 44°23' W 001°26'11 9.8
2016-Sep-21 22:28N 44°13' W 001°30'3110.3
2016-Sep-21 19:27N 43°46' W 001°51'46 3.3
2016-Sep-21 05:33N 44°28' W 001°26'7 3.7
2016-Sep-21 03:33N 44°35' W 001°26'0 0.2
2016-Sep-21 02:33N 44°35' W 001°26'10 1.2
2016-Sep-20 17:33N 44°45' W 001°29'1 0.2
2016-Sep-20 14:33N 44°45' W 001°30'0 0.4
2016-Sep-20 13:33N 44°45' W 001°30'12 3.9
2016-Sep-20 10:33N 44°33' W 001°29'7 0.9
2016-Sep-20 02:32N 44°26' W 001°26'6 2.1
2016-Sep-19 23:33N 44°32' W 001°27'  

Dump ship's entire track history